Time;durP1;ratioP1;P1;durP2;ratioP2;P2;SDS_P1;SDS_P2;PMS_P1;PMS_P2;Temp;Humidity;BMP_temperature;BMP_pressure;BME280_temperature;BME280_humidity;BME280_pressure;Samples;Min_cycle;Max_cycle;Signal;HPM_P1;HPM_P2
2021/05/10 00:01:18;;;;;;;2.50;2.30;;;18.90;62.70;;;;;;5071652;28;20300;-65
2021/05/10 00:03:43;;;;;;;2.13;2.03;;;19.00;62.00;;;;;;5071398;28;20437;-66
2021/05/10 00:06:09;;;;;;;2.40;2.30;;;19.10;62.10;;;;;;5071534;28;20210;-65
2021/05/10 00:08:34;;;;;;;2.70;2.33;;;19.10;62.00;;;;;;5070890;28;20238;-65
2021/05/10 00:11:00;;;;;;;3.93;2.17;;;19.00;62.30;;;;;;5071350;28;20197;-66
2021/05/10 00:13:27;;;;;;;2.67;2.47;;;19.10;62.10;;;;;;5071437;28;20171;-66
2021/05/10 00:15:53;;;;;;;2.10;2.00;;;19.10;62.10;;;;;;5071465;28;20172;-65
2021/05/10 00:18:20;;;;;;;2.30;2.10;;;19.10;62.30;;;;;;5071238;28;20485;-65
2021/05/10 00:20:47;;;;;;;3.33;2.83;;;19.00;62.60;;;;;;5071790;28;20425;-66
2021/05/10 00:23:13;;;;;;;2.87;2.77;;;19.00;62.90;;;;;;5071196;28;20742;-65
2021/05/10 00:25:40;;;;;;;1.90;1.80;;;19.00;62.70;;;;;;5071467;28;20480;-65
2021/05/10 00:28:06;;;;;;;2.27;2.07;;;18.90;63.10;;;;;;5071129;28;20409;-65
2021/05/10 00:30:33;;;;;;;2.70;2.07;;;19.00;63.20;;;;;;5070970;28;20416;-65
2021/05/10 00:32:58;;;;;;;2.83;2.53;;;18.80;63.40;;;;;;5071186;28;20477;-66
2021/05/10 00:35:25;;;;;;;2.40;2.20;;;18.80;63.90;;;;;;5071095;28;20496;-66
2021/05/10 00:37:52;;;;;;;2.80;2.07;;;18.70;64.10;;;;;;5070979;28;20695;-66
2021/05/10 00:40:23;;;;;;;2.43;2.23;;;18.90;63.00;;;;;;5070965;28;20410;-65
2021/05/10 00:42:49;;;;;;;2.13;2.03;;;18.90;62.90;;;;;;5073246;28;20420;-66
2021/05/10 00:45:15;;;;;;;2.40;2.30;;;18.90;62.60;;;;;;5074636;28;20976;-66
2021/05/10 00:47:41;;;;;;;2.80;2.60;;;18.80;63.20;;;;;;5074729;28;20458;-66
2021/05/10 00:50:09;;;;;;;4.13;2.20;;;18.80;62.90;;;;;;5074041;28;20451;-65
2021/05/10 00:52:35;;;;;;;2.47;2.27;;;19.00;61.70;;;;;;5074806;28;20201;-65
2021/05/10 00:55:02;;;;;;;1.97;1.87;;;18.90;62.90;;;;;;5074508;28;20570;-66
2021/05/10 00:57:36;;;;;;;4.13;1.90;;;18.90;62.50;;;;;;5074485;28;20191;-66
2021/05/10 01:00:07;;;;;;;1.70;1.60;;;18.90;63.70;;;;;;5073967;28;20425;-66
2021/05/10 01:02:34;;;;;;;2.37;2.00;;;19.00;63.10;;;;;;5073029;28;20441;-66
2021/05/10 01:05:00;;;;;;;2.10;2.00;;;19.00;62.90;;;;;;5074480;28;20416;-66
2021/05/10 01:07:26;;;;;;;3.37;2.27;;;19.00;62.10;;;;;;5074390;28;20897;-66
2021/05/10 01:09:51;;;;;;;2.67;1.93;;;19.00;62.80;;;;;;5073742;28;20603;-66
2021/05/10 01:12:17;;;;;;;2.50;2.30;;;19.00;62.70;;;;;;5074247;28;20190;-66
2021/05/10 01:14:43;;;;;;;2.80;1.93;;;18.90;63.70;;;;;;5074188;28;20175;-66
2021/05/10 01:17:08;;;;;;;3.70;2.07;;;18.80;63.90;;;;;;5074095;28;20258;-66
2021/05/10 01:19:35;;;;;;;1.87;1.77;;;18.80;63.20;;;;;;5073541;28;20236;-66
2021/05/10 01:22:04;;;;;;;2.60;2.20;;;18.80;63.50;;;;;;5074085;28;20232;-66
2021/05/10 01:24:31;;;;;;;2.80;2.03;;;18.80;63.90;;;;;;5073997;28;20894;-66
2021/05/10 01:26:56;;;;;;;1.80;1.70;;;18.70;64.30;;;;;;5073896;28;20410;-66
2021/05/10 01:29:22;;;;;;;2.00;1.90;;;18.60;64.30;;;;;;5073545;28;20389;-66
2021/05/10 01:31:48;;;;;;;2.30;2.20;;;18.70;64.20;;;;;;5073598;28;20465;-66
2021/05/10 01:34:14;;;;;;;1.90;1.80;;;18.60;64.60;;;;;;5074044;28;20351;-66
2021/05/10 01:36:40;;;;;;;1.87;1.77;;;18.60;64.60;;;;;;5073780;28;20168;-66
2021/05/10 01:39:06;;;;;;;1.90;1.80;;;18.60;64.30;;;;;;5073287;28;20606;-66
2021/05/10 01:41:32;;;;;;;2.13;2.03;;;18.60;64.30;;;;;;5073610;28;20226;-66
2021/05/10 01:43:57;;;;;;;4.50;2.30;;;18.70;63.90;;;;;;5073694;28;20179;-66
2021/05/10 01:46:23;;;;;;;2.27;2.07;;;18.70;63.80;;;;;;5073358;28;20398;-66
2021/05/10 01:48:49;;;;;;;2.30;2.10;;;18.70;64.30;;;;;;5073218;28;20174;-66
2021/05/10 01:51:14;;;;;;;1.90;1.80;;;18.60;64.60;;;;;;5073356;28;20206;-66
2021/05/10 01:53:43;;;;;;;2.30;2.20;;;18.60;65.20;;;;;;5072569;28;20926;-66
2021/05/10 01:56:09;;;;;;;2.53;2.03;;;18.60;65.50;;;;;;5073393;28;20665;-66
2021/05/10 01:58:34;;;;;;;2.27;2.07;;;18.50;66.00;;;;;;5073009;28;20515;-66
2021/05/10 02:01:00;;;;;;;2.43;2.23;;;18.50;66.40;;;;;;5073256;28;20187;-65
2021/05/10 02:03:25;;;;;;;1.87;1.77;;;18.40;67.00;;;;;;5073257;28;20242;-66
2021/05/10 02:05:51;;;;;;;3.10;2.90;;;18.30;67.30;;;;;;5073234;28;20246;-66
2021/05/10 02:08:18;;;;;;;2.47;2.27;;;18.40;67.40;;;;;;5072791;28;20178;-66
2021/05/10 02:10:51;;;;;;;1.80;1.70;;;18.30;67.50;;;;;;5073088;28;20898;-65
2021/05/10 02:13:19;;;;;;;2.13;2.03;;;18.30;67.60;;;;;;5073001;28;20408;-66
2021/05/10 02:15:56;;;;;;;4.17;3.00;;;18.30;67.70;;;;;;5072859;28;20418;-66
2021/05/10 02:18:25;;;;;;;2.07;1.80;;;18.30;67.70;;;;;;5072493;28;20456;-66
2021/05/10 02:20:51;;;;;;;2.83;2.63;;;18.20;67.80;;;;;;5072921;28;20471;-66
2021/05/10 02:23:22;;;;;;;2.40;2.30;;;18.10;68.20;;;;;;5072774;28;20439;-66
2021/05/10 02:25:58;;;;;;;2.13;1.93;;;18.00;68.10;;;;;;5072802;28;20459;-66
2021/05/10 02:28:27;;;;;;;3.87;3.67;;;18.00;68.30;;;;;;5072508;28;20829;-66
2021/05/10 02:30:54;;;;;;;1.77;1.67;;;17.90;68.50;;;;;;5072675;28;20463;-66
2021/05/10 02:33:22;;;;;;;2.30;2.00;;;17.80;69.20;;;;;;5072614;28;20409;-66
2021/05/10 02:35:50;;;;;;;2.13;1.80;;;17.90;68.30;;;;;;5072651;28;20405;-66
2021/05/10 02:38:16;;;;;;;2.10;2.00;;;18.10;68.00;;;;;;5072021;28;20492;-66
2021/05/10 02:40:42;;;;;;;1.73;1.63;;;18.20;67.10;;;;;;5072317;28;20879;-66
2021/05/10 02:43:08;;;;;;;2.77;2.50;;;18.10;67.50;;;;;;5072562;28;20401;-66
2021/05/10 02:45:34;;;;;;;3.40;2.47;;;18.10;68.00;;;;;;5072356;28;20398;-65
2021/05/10 02:48:00;;;;;;;2.53;2.37;;;18.00;67.90;;;;;;5072295;28;20163;-65
2021/05/10 02:50:27;;;;;;;2.87;2.40;;;18.00;68.00;;;;;;5072140;28;20166;-65
2021/05/10 02:52:53;;;;;;;1.80;1.70;;;18.00;67.90;;;;;;5072291;28;20420;-65
2021/05/10 02:55:19;;;;;;;2.50;2.40;;;17.90;68.60;;;;;;5072086;28;20462;-65
2021/05/10 02:57:47;;;;;;;7.80;2.20;;;17.90;68.50;;;;;;5071986;28;20456;-66
2021/05/10 03:00:15;;;;;;;2.20;2.00;;;18.00;68.20;;;;;;5071897;28;20421;-65
2021/05/10 03:02:41;;;;;;;2.03;1.93;;;18.10;67.40;;;;;;5072072;28;20421;-65
2021/05/10 03:05:08;;;;;;;2.10;2.00;;;18.10;68.00;;;;;;5072020;28;20398;-65
2021/05/10 03:07:35;;;;;;;4.43;1.93;;;18.10;68.50;;;;;;5071914;28;20178;-65
2021/05/10 03:10:01;;;;;;;2.60;2.40;;;18.10;68.50;;;;;;5071595;28;20483;-65
2021/05/10 03:12:28;;;;;;;6.27;2.40;;;18.20;68.40;;;;;;5071925;28;20883;-65
2021/05/10 03:14:53;;;;;;;2.40;2.30;;;18.10;68.80;;;;;;5071955;28;20740;-65
2021/05/10 03:17:19;;;;;;;2.73;2.63;;;18.10;69.40;;;;;;5072006;28;20813;-65
2021/05/10 03:19:45;;;;;;;2.60;2.40;;;18.00;72.70;;;;;;5071498;28;20242;-65
2021/05/10 03:22:10;;;;;;;3.57;3.27;;;17.80;72.50;;;;;;5071681;28;20610;-65
2021/05/10 03:24:36;;;;;;;2.40;2.20;;;17.80;72.70;;;;;;5071758;28;20632;-65
2021/05/10 03:27:02;;;;;;;2.50;2.30;;;17.70;73.10;;;;;;5071891;28;20213;-65
2021/05/10 03:29:27;;;;;;;3.13;2.47;;;17.70;73.60;;;;;;5071456;28;20163;-65
2021/05/10 03:31:53;;;;;;;2.30;2.20;;;17.60;73.40;;;;;;5071756;28;20193;-65
2021/05/10 03:34:19;;;;;;;2.17;2.03;;;17.60;73.80;;;;;;5071768;28;20644;-65
2021/05/10 03:36:44;;;;;;;4.50;2.80;;;17.50;74.40;;;;;;5072516;28;20163;-63
2021/05/10 03:39:10;;;;;;;3.80;2.60;;;17.50;75.50;;;;;;5071513;28;20403;-64
2021/05/10 03:41:35;;;;;;;5.07;2.50;;;17.50;76.10;;;;;;5071627;28;20183;-63
2021/05/10 03:44:01;;;;;;;3.17;2.87;;;17.40;77.50;;;;;;5071781;28;20171;-63
2021/05/10 03:46:26;;;;;;;2.33;1.87;;;17.30;79.10;;;;;;5071725;28;20216;-63
2021/05/10 03:48:52;;;;;;;2.70;2.60;;;17.20;79.60;;;;;;5071291;28;20671;-63
2021/05/10 03:51:18;;;;;;;2.40;2.20;;;17.10;80.50;;;;;;5071413;28;20187;-63
2021/05/10 03:53:44;;;;;;;2.67;2.57;;;17.00;81.40;;;;;;5072134;28;20193;-63
2021/05/10 03:56:12;;;;;;;2.73;2.53;;;16.90;81.80;;;;;;5071571;28;20428;-64
2021/05/10 03:58:38;;;;;;;3.20;2.13;;;16.80;82.80;;;;;;5071008;28;20571;-63
2021/05/10 04:01:05;;;;;;;2.37;2.27;;;16.80;83.20;;;;;;5071414;28;20414;-63
2021/05/10 04:03:43;;;;;;;2.40;2.27;;;16.70;83.90;;;;;;5071585;28;20398;-63
2021/05/10 04:06:19;;;;;;;2.57;2.40;;;16.60;84.30;;;;;;5071330;28;20409;-63
2021/05/10 04:11:23;;;;;;;2.93;2.73;;;16.70;84.00;;;;;;5071507;28;20500;-63
2021/05/10 04:13:53;;;;;;;1.90;1.80;;;16.70;84.10;;;;;;5071433;28;20730;-64
2021/05/10 04:16:18;;;;;;;2.80;2.43;;;16.70;84.20;;;;;;5071162;28;20401;-63
2021/05/10 04:18:44;;;;;;;2.80;2.60;;;16.70;84.50;;;;;;5074578;28;20467;-64
2021/05/10 04:21:09;;;;;;;4.10;2.57;;;16.70;84.00;;;;;;5075130;28;20187;-63
2021/05/10 04:23:35;;;;;;;4.30;2.60;;;16.70;83.90;;;;;;5075227;28;20209;-63
2021/05/10 04:26:00;;;;;;;2.60;2.40;;;16.70;84.20;;;;;;5075076;28;20164;-63
2021/05/10 04:28:26;;;;;;;3.00;2.80;;;16.80;83.60;;;;;;5075152;28;20175;-64
2021/05/10 04:30:53;;;;;;;2.47;2.37;;;16.80;83.20;;;;;;5074805;28;20191;-63
2021/05/10 04:33:33;;;;;;;2.20;2.10;;;16.80;83.70;;;;;;5075434;28;20187;-64
2021/05/10 04:35:59;;;;;;;3.20;3.00;;;16.70;83.90;;;;;;5074871;28;20466;-65
2021/05/10 04:38:26;;;;;;;2.83;2.30;;;16.70;84.10;;;;;;5074442;28;21087;-64
2021/05/10 04:40:54;;;;;;;2.47;2.27;;;16.80;84.70;;;;;;5074783;28;20421;-63
2021/05/10 04:43:20;;;;;;;2.63;2.20;;;16.80;85.00;;;;;;5074856;28;20482;-63
2021/05/10 04:45:45;;;;;;;2.17;2.07;;;16.80;84.60;;;;;;5074596;28;20444;-63
2021/05/10 04:48:11;;;;;;;4.53;2.40;;;16.80;85.00;;;;;;5074436;28;20167;-63
2021/05/10 04:50:36;;;;;;;2.20;2.10;;;16.70;85.90;;;;;;5074450;28;20167;-63
2021/05/10 04:53:02;;;;;;;3.60;2.80;;;16.70;86.70;;;;;;5074704;28;20289;-63
2021/05/10 04:55:28;;;;;;;2.30;2.20;;;16.60;88.00;;;;;;5074510;28;20250;-63
2021/05/10 04:57:54;;;;;;;2.30;2.20;;;16.50;88.20;;;;;;5074316;28;20199;-63
2021/05/10 05:00:20;;;;;;;2.57;2.37;;;16.50;88.90;;;;;;5074576;28;20542;-63
2021/05/10 05:02:46;;;;;;;2.70;2.50;;;16.60;88.70;;;;;;5074596;28;20428;-63
2021/05/10 05:05:13;;;;;;;2.90;2.70;;;16.60;89.00;;;;;;5074445;28;20777;-63
2021/05/10 05:07:39;;;;;;;2.90;2.60;;;16.50;90.00;;;;;;5074429;28;20557;-63
2021/05/10 05:10:09;;;;;;;3.40;3.10;;;16.60;90.10;;;;;;5073962;28;20409;-63
2021/05/10 05:12:38;;;;;;;2.57;2.37;;;16.60;90.00;;;;;;5074050;28;20436;-63
2021/05/10 05:15:08;;;;;;;2.10;1.97;;;16.60;90.00;;;;;;5074429;28;20414;-63
2021/05/10 05:17:34;;;;;;;2.43;2.27;;;16.70;90.20;;;;;;5074163;28;20467;-63
2021/05/10 05:20:00;;;;;;;3.07;2.87;;;16.70;90.20;;;;;;5073767;28;20451;-63
2021/05/10 05:22:26;;;;;;;2.80;2.70;;;16.70;90.00;;;;;;5074019;28;20917;-63
2021/05/10 05:24:51;;;;;;;2.53;2.33;;;16.60;90.00;;;;;;5074188;28;20199;-63
2021/05/10 05:27:17;;;;;;;2.53;2.33;;;16.60;90.20;;;;;;5073839;28;20182;-63
2021/05/10 05:29:42;;;;;;;3.63;2.20;;;16.50;90.50;;;;;;5072279;28;20175;-64
2021/05/10 05:32:08;;;;;;;1.90;1.80;;;16.60;91.00;;;;;;5073792;28;20558;-63
2021/05/10 05:34:33;;;;;;;3.33;2.73;;;16.50;91.30;;;;;;5073975;28;20796;-63
2021/05/10 05:36:59;;;;;;;2.00;1.90;;;16.50;91.80;;;;;;5073831;28;20181;-63
2021/05/10 05:39:26;;;;;;;2.60;2.43;;;16.40;92.00;;;;;;5073388;28;20701;-64
2021/05/10 05:41:52;;;;;;;2.57;2.47;;;16.30;92.50;;;;;;5073985;28;20188;-63
2021/05/10 05:44:18;;;;;;;2.13;2.03;;;16.20;93.40;;;;;;5073740;28;20405;-63
2021/05/10 05:46:48;;;;;;;4.07;2.60;;;16.20;93.50;;;;;;5073624;28;20460;-63
2021/05/10 05:49:14;;;;;;;3.67;2.20;;;16.20;93.80;;;;;;5073380;28;20171;-63
2021/05/10 05:51:40;;;;;;;2.47;2.00;;;16.10;93.80;;;;;;5073417;28;20479;-63
2021/05/10 05:54:07;;;;;;;2.63;2.10;;;16.10;93.80;;;;;;5073640;28;20471;-64
2021/05/10 05:56:32;;;;;;;2.90;1.83;;;16.20;93.70;;;;;;5073380;28;20175;-63
2021/05/10 05:58:59;;;;;;;2.30;2.00;;;16.20;93.60;;;;;;5071445;28;20479;-65
2021/05/10 06:01:25;;;;;;;1.93;1.83;;;16.30;93.20;;;;;;5071995;28;20183;-65
2021/05/10 06:03:51;;;;;;;3.53;1.83;;;16.30;93.50;;;;;;5073283;28;20901;-65
2021/05/10 06:06:17;;;;;;;1.97;1.87;;;16.50;92.80;;;;;;5073207;28;20520;-65
2021/05/10 06:08:43;;;;;;;1.73;1.63;;;16.60;91.90;;;;;;5072815;28;20461;-64
2021/05/10 06:11:09;;;;;;;1.93;1.83;;;16.60;91.80;;;;;;5072883;28;20740;-64
2021/05/10 06:13:36;;;;;;;3.40;1.40;;;16.80;91.90;;;;;;5073331;28;20167;-64
2021/05/10 06:16:02;;;;;;;1.83;1.73;;;16.80;92.10;;;;;;5073031;28;20501;-65
2021/05/10 06:18:27;;;;;;;2.40;1.67;;;17.00;91.70;;;;;;5072523;28;20876;-64
2021/05/10 06:20:53;;;;;;;1.63;1.57;;;17.00;90.90;;;;;;5072902;28;20558;-64
2021/05/10 06:23:19;;;;;;;1.70;1.60;;;16.90;91.30;;;;;;5072918;28;20174;-64
2021/05/10 06:25:45;;;;;;;1.70;1.60;;;16.90;91.40;;;;;;5072736;28;20178;-64
2021/05/10 06:28:10;;;;;;;3.50;2.00;;;16.90;91.50;;;;;;5072354;28;20185;-62
2021/05/10 06:30:36;;;;;;;1.40;1.30;;;17.00;91.40;;;;;;5072648;28;20175;-63
2021/05/10 06:33:02;;;;;;;1.20;1.10;;;17.00;90.60;;;;;;5072632;28;20183;-62
2021/05/10 06:35:27;;;;;;;1.60;1.27;;;17.00;90.40;;;;;;5072786;28;20170;-62
2021/05/10 06:37:53;;;;;;;1.53;1.43;;;17.10;90.40;;;;;;5072287;28;20572;-62
2021/05/10 06:40:18;;;;;;;0.97;0.97;;;17.10;90.40;;;;;;5071763;28;20164;-64
2021/05/10 06:42:44;;;;;;;1.60;1.50;;;17.10;90.60;;;;;;5072417;28;20630;-62
2021/05/10 06:45:10;;;;;;;1.20;1.13;;;17.00;90.70;;;;;;5072528;28;20198;-62
2021/05/10 06:47:39;;;;;;;1.63;1.17;;;16.90;90.80;;;;;;5072551;28;20179;-62
2021/05/10 06:50:06;;;;;;;1.83;1.13;;;16.70;90.90;;;;;;5071993;28;20185;-64
2021/05/10 06:52:32;;;;;;;3.67;1.80;;;16.60;91.30;;;;;;5072104;28;20457;-63
2021/05/10 06:54:57;;;;;;;1.50;1.40;;;16.60;91.70;;;;;;5072310;28;20408;-63
2021/05/10 06:57:23;;;;;;;1.23;1.17;;;16.60;91.90;;;;;;5072083;28;20441;-63
2021/05/10 06:59:48;;;;;;;1.80;1.80;;;16.50;92.00;;;;;;5071760;28;20182;-60
2021/05/10 07:02:14;;;;;;;1.33;0.93;;;16.40;91.90;;;;;;5072010;28;20190;-60
2021/05/10 07:04:40;;;;;;;1.07;1.07;;;16.40;92.00;;;;;;5072177;28;20197;-62
2021/05/10 07:07:06;;;;;;;1.10;1.10;;;16.50;92.50;;;;;;5071978;28;20159;-62
2021/05/10 07:09:31;;;;;;;1.00;1.00;;;16.60;92.70;;;;;;5071673;28;20541;-62
2021/05/10 07:11:57;;;;;;;1.00;1.00;;;16.70;92.10;;;;;;5071952;28;20781;-62
2021/05/10 07:14:23;;;;;;;1.23;1.13;;;16.80;92.40;;;;;;5072246;28;20175;-62
2021/05/10 07:16:48;;;;;;;1.10;1.10;;;16.80;91.40;;;;;;5071888;28;20159;-62
2021/05/10 07:19:14;;;;;;;2.37;1.00;;;16.80;91.50;;;;;;5071511;28;20203;-62
2021/05/10 07:21:40;;;;;;;1.03;0.90;;;16.70;91.30;;;;;;5071782;28;20203;-62
2021/05/10 07:24:06;;;;;;;0.80;0.80;;;16.50;91.20;;;;;;5071860;28;20899;-60
2021/05/10 07:26:31;;;;;;;1.23;1.13;;;16.50;91.20;;;;;;5071909;28;20612;-59
2021/05/10 07:28:57;;;;;;;1.00;1.00;;;16.40;91.40;;;;;;5071611;28;20175;-62
2021/05/10 07:31:24;;;;;;;1.10;1.10;;;16.40;92.00;;;;;;5071766;28;20734;-63
2021/05/10 07:33:51;;;;;;;0.90;0.90;;;16.40;92.30;;;;;;5071680;28;20254;-63
2021/05/10 07:36:16;;;;;;;1.07;0.93;;;16.20;91.80;;;;;;5071740;28;20420;-64
2021/05/10 07:38:42;;;;;;;1.40;1.10;;;16.10;92.20;;;;;;5071139;28;20923;-62
2021/05/10 07:41:08;;;;;;;1.33;0.93;;;16.00;92.30;;;;;;5071721;28;20558;-63
2021/05/10 07:43:33;;;;;;;1.10;1.10;;;16.00;92.40;;;;;;5071666;28;20537;-63
2021/05/10 07:45:59;;;;;;;3.57;0.90;;;16.10;92.50;;;;;;5071733;28;20167;-63
2021/05/10 07:48:24;;;;;;;1.23;1.23;;;16.20;92.40;;;;;;5071242;28;20221;-63
2021/05/10 07:50:50;;;;;;;0.87;0.87;;;16.30;92.30;;;;;;5071611;28;20187;-63
2021/05/10 07:53:15;;;;;;;0.80;0.80;;;16.50;92.00;;;;;;5074681;28;20171;-63
2021/05/10 07:55:41;;;;;;;0.73;0.73;;;16.70;91.60;;;;;;5075829;28;20194;-64
2021/05/10 07:58:07;;;;;;;0.83;0.83;;;16.60;91.20;;;;;;5075447;28;20230;-63
2021/05/10 08:00:38;;;;;;;0.90;0.90;;;16.50;91.10;;;;;;5075487;28;20540;-69
2021/05/10 08:03:08;;;;;;;0.77;0.77;;;16.70;91.50;;;;;;5075516;28;20159;-62
2021/05/10 08:05:35;;;;;;;1.00;1.00;;;16.60;91.00;;;;;;5075443;28;20403;-64
2021/05/10 08:08:01;;;;;;;1.10;1.10;;;16.50;91.10;;;;;;5075320;28;20917;-63
2021/05/10 08:10:27;;;;;;;0.80;0.80;;;16.60;91.20;;;;;;5075187;28;20436;-63
2021/05/10 08:12:52;;;;;;;1.10;1.00;;;16.60;91.10;;;;;;5075403;28;20751;-63
2021/05/10 08:15:18;;;;;;;1.07;1.07;;;16.70;91.30;;;;;;5075339;28;20410;-63
2021/05/10 08:17:44;;;;;;;0.97;0.97;;;16.80;91.10;;;;;;5075078;28;20675;-68
2021/05/10 08:20:10;;;;;;;1.23;1.13;;;16.90;90.60;;;;;;5074825;28;20259;-65
2021/05/10 08:22:35;;;;;;;1.43;1.33;;;17.00;90.20;;;;;;5075177;28;20269;-64
2021/05/10 08:25:02;;;;;;;1.10;1.10;;;17.00;90.10;;;;;;5075258;28;20881;-65
2021/05/10 08:27:28;;;;;;;0.83;0.83;;;17.10;90.10;;;;;;5075057;28;20184;-66
2021/05/10 08:29:54;;;;;;;1.00;1.00;;;17.40;90.10;;;;;;5074733;28;20991;-65
2021/05/10 08:32:19;;;;;;;4.23;1.40;;;17.80;89.90;;;;;;5074974;28;20635;-64
2021/05/10 08:34:45;;;;;;;1.43;1.33;;;17.90;87.00;;;;;;5074884;28;20179;-64
2021/05/10 08:37:10;;;;;;;1.57;1.47;;;17.60;86.40;;;;;;5074886;28;20245;-66
2021/05/10 08:39:36;;;;;;;1.17;1.17;;;17.50;87.50;;;;;;5074462;28;20510;-68
2021/05/10 08:42:02;;;;;;;2.70;1.30;;;17.50;88.20;;;;;;5074831;28;20183;-63
2021/05/10 08:44:28;;;;;;;1.00;1.00;;;17.50;89.10;;;;;;5074740;28;20252;-63
2021/05/10 08:46:53;;;;;;;0.93;0.90;;;17.50;87.80;;;;;;5074842;28;20164;-64
2021/05/10 08:49:21;;;;;;;1.60;1.50;;;17.30;88.30;;;;;;5074127;28;20558;-66
2021/05/10 08:51:48;;;;;;;1.33;1.23;;;17.20;87.50;;;;;;5074578;28;20278;-64
2021/05/10 08:54:25;;;;;;;1.70;1.60;;;17.10;89.20;;;;;;5074644;28;20539;-64
2021/05/10 08:56:52;;;;;;;1.40;1.30;;;17.20;89.40;;;;;;5074729;28;20478;-63
2021/05/10 08:59:19;;;;;;;1.67;1.57;;;17.10;89.90;;;;;;5073794;28;20453;-64
2021/05/10 09:01:58;;;;;;;1.50;1.40;;;17.00;90.10;;;;;;5074403;28;20797;-63
2021/05/10 09:04:43;;;;;;;0.90;0.90;;;16.90;90.40;;;;;;5074308;28;20402;-64
2021/05/10 09:07:23;;;;;;;1.10;1.10;;;16.80;90.70;;;;;;5074444;28;20765;-61
2021/05/10 09:09:55;;;;;;;1.10;1.10;;;16.70;91.00;;;;;;5074026;28;20749;-63
2021/05/10 09:12:22;;;;;;;1.90;1.30;;;16.60;91.20;;;;;;5074179;28;20846;-64
2021/05/10 09:14:49;;;;;;;1.27;1.10;;;16.50;91.80;;;;;;5074445;28;20413;-64
2021/05/10 09:17:16;;;;;;;1.40;1.30;;;16.70;92.40;;;;;;5074073;28;20413;-63
2021/05/10 09:19:45;;;;;;;1.90;1.43;;;16.70;92.40;;;;;;5073733;28;20471;-63
2021/05/10 09:22:11;;;;;;;2.53;1.43;;;16.80;91.80;;;;;;5074059;28;20467;-63
2021/05/10 09:24:48;;;;;;;1.27;1.07;;;16.90;91.70;;;;;;5074018;28;20913;-64
2021/05/10 09:27:25;;;;;;;1.33;1.23;;;16.90;91.40;;;;;;5074065;28;20480;-64
2021/05/10 09:30:11;;;;;;;1.27;1.20;;;17.00;91.40;;;;;;5073623;28;20493;-64
2021/05/10 09:32:36;;;;;;;1.70;1.33;;;17.00;91.30;;;;;;5073995;28;20421;-64
2021/05/10 09:35:15;;;;;;;1.47;1.37;;;17.00;91.70;;;;;;5073784;28;20493;-63
2021/05/10 09:37:41;;;;;;;1.30;1.20;;;17.00;91.40;;;;;;5074637;28;20191;-62
2021/05/10 09:40:08;;;;;;;1.20;1.20;;;16.90;91.60;;;;;;5073366;28;20409;-63
2021/05/10 09:42:53;;;;;;;1.50;1.40;;;16.60;92.30;;;;;;5073704;28;20425;-62
2021/05/10 09:45:41;;;;;;;1.60;1.50;;;16.50;92.70;;;;;;5073647;28;20921;-64
2021/05/10 09:48:12;;;;;;;2.17;2.07;;;16.40;92.80;;;;;;5073562;28;20913;-65
2021/05/10 09:50:43;;;;;;;2.30;2.20;;;16.30;93.00;;;;;;5073614;28;20829;-63
2021/05/10 09:53:13;;;;;;;1.50;1.40;;;16.40;93.20;;;;;;5073567;28;20406;-63
2021/05/10 09:55:45;;;;;;;2.17;2.07;;;16.50;92.50;;;;;;5073517;28;20405;-64
2021/05/10 09:58:11;;;;;;;1.53;1.43;;;16.70;92.40;;;;;;5072654;28;20457;-63
2021/05/10 10:00:38;;;;;;;1.57;1.40;;;16.70;91.90;;;;;;5073240;28;20897;-64
2021/05/10 10:03:05;;;;;;;1.73;1.57;;;16.80;92.20;;;;;;5073337;28;20429;-64
2021/05/10 10:05:31;;;;;;;1.93;1.83;;;17.20;91.90;;;;;;5073417;28;20483;-65
2021/05/10 10:07:57;;;;;;;1.70;1.60;;;17.50;91.80;;;;;;5073171;28;20842;-64
2021/05/10 10:10:23;;;;;;;1.60;1.50;;;17.80;91.10;;;;;;5072908;28;20402;-63
2021/05/10 10:12:49;;;;;;;1.97;1.63;;;17.90;90.40;;;;;;5072876;28;20504;-63
2021/05/10 10:15:14;;;;;;;2.13;1.60;;;18.10;90.10;;;;;;5072520;28;20167;-62
2021/05/10 10:17:40;;;;;;;2.40;1.67;;;17.80;89.80;;;;;;5073059;28;20234;-64
2021/05/10 10:20:08;;;;;;;1.63;1.53;;;17.90;90.20;;;;;;5072529;28;20168;-63
2021/05/10 10:22:34;;;;;;;1.67;1.57;;;17.90;90.10;;;;;;5072873;28;20467;-63
2021/05/10 10:25:03;;;;;;;3.20;1.30;;;17.90;90.20;;;;;;5072838;28;20838;-64
2021/05/10 10:27:29;;;;;;;1.60;1.57;;;18.10;90.40;;;;;;5072719;28;20179;-63
2021/05/10 10:29:55;;;;;;;1.33;1.33;;;18.20;90.40;;;;;;5072417;28;20413;-63
2021/05/10 10:32:23;;;;;;;1.90;1.73;;;18.40;90.50;;;;;;5072672;28;20195;-66
2021/05/10 10:34:49;;;;;;;2.23;2.07;;;18.90;90.60;;;;;;5072648;28;20398;-68
2021/05/10 10:37:17;;;;;;;1.60;1.50;;;19.20;87.80;;;;;;5072637;28;20803;-67
2021/05/10 10:39:53;;;;;;;2.40;2.30;;;19.50;89.20;;;;;;5072079;28;20864;-67
2021/05/10 10:42:24;;;;;;;1.80;1.70;;;19.40;85.60;;;;;;5072903;28;20417;-66
2021/05/10 10:44:55;;;;;;;1.67;1.57;;;19.30;86.70;;;;;;5072444;28;20397;-65
2021/05/10 10:47:45;;;;;;;2.17;2.07;;;18.70;85.00;;;;;;5072840;28;20398;-65
2021/05/10 10:50:17;;;;;;;1.70;1.60;;;18.60;86.50;;;;;;5071965;28;20937;-62
2021/05/10 10:52:46;;;;;;;1.43;1.43;;;18.60;87.00;;;;;;5072391;28;20485;-64
2021/05/10 10:55:13;;;;;;;1.80;1.70;;;18.60;85.80;;;;;;5072222;28;20401;-62
2021/05/10 10:57:40;;;;;;;2.20;1.70;;;18.70;86.90;;;;;;5072098;28;20457;-63
2021/05/10 11:00:06;;;;;;;1.50;1.50;;;18.60;86.10;;;;;;5071819;28;20530;-62
2021/05/10 11:02:44;;;;;;;1.57;1.47;;;18.30;87.00;;;;;;5072050;28;20410;-63
2021/05/10 11:05:15;;;;;;;2.23;1.90;;;17.90;87.00;;;;;;5072352;28;20393;-62
2021/05/10 11:07:50;;;;;;;1.73;1.63;;;17.50;88.20;;;;;;5070693;28;20405;-61
2021/05/10 11:10:51;;;;;;;1.67;1.57;;;17.50;89.40;;;;;;5070530;28;20771;-62
2021/05/10 11:13:26;;;;;;;2.40;2.20;;;18.00;89.30;;;;;;5071941;28;20408;-63
2021/05/10 11:15:54;;;;;;;6.90;2.07;;;18.30;88.50;;;;;;5071843;28;20476;-63
2021/05/10 11:18:55;;;;;;;1.67;1.57;;;18.40;87.90;;;;;;5071594;28;20456;-62
2021/05/10 11:21:24;;;;;;;1.57;1.47;;;18.10;87.60;;;;;;5070040;28;20451;-62
2021/05/10 11:23:59;;;;;;;1.77;1.33;;;18.10;89.00;;;;;;5071736;28;20766;-63
2021/05/10 11:26:47;;;;;;;1.60;1.50;;;17.80;90.10;;;;;;5071579;28;20394;-62
2021/05/10 11:29:25;;;;;;;1.20;1.10;;;17.30;91.10;;;;;;5071584;28;20397;-62
2021/05/10 11:31:54;;;;;;;1.57;1.47;;;16.80;92.00;;;;;;5071334;28;20428;-62
2021/05/10 11:34:36;;;;;;;2.70;1.30;;;16.70;93.00;;;;;;5071836;28;20405;-63
2021/05/10 11:37:07;;;;;;;1.10;1.00;;;16.40;93.10;;;;;;5071940;28;20469;-62
2021/05/10 11:39:37;;;;;;;1.37;1.27;;;16.50;94.60;;;;;;5071362;28;20512;-63
2021/05/10 11:42:05;;;;;;;3.40;1.47;;;16.50;94.90;;;;;;5071534;28;20977;-63
2021/05/10 11:44:33;;;;;;;1.13;1.13;;;16.50;95.60;;;;;;5071565;28;20440;-63
2021/05/10 11:46:59;;;;;;;1.30;1.17;;;16.70;95.20;;;;;;5071670;28;20757;-62
2021/05/10 11:49:26;;;;;;;1.43;1.20;;;16.80;95.50;;;;;;5070403;28;20456;-63
2021/05/10 11:51:52;;;;;;;1.33;1.23;;;17.20;95.40;;;;;;5070035;28;20463;-62
2021/05/10 11:54:20;;;;;;;1.27;1.03;;;17.70;95.00;;;;;;5071715;28;20401;-62
2021/05/10 11:56:46;;;;;;;1.10;1.10;;;18.60;95.90;;;;;;5071583;28;20401;-63
2021/05/10 12:02:30;;;;;;;1.27;1.07;;;19.70;91.50;;;;;;5071751;28;20484;-63
2021/05/10 12:04:57;;;;;;;0.90;0.90;;;19.50;89.30;;;;;;5071533;28;20405;-63
2021/05/10 12:07:26;;;;;;;1.00;1.00;;;19.40;88.20;;;;;;5071836;28;20968;-63
2021/05/10 12:10:03;;;;;;;0.93;0.93;;;19.20;87.60;;;;;;5071075;28;20436;-63
2021/05/10 12:12:40;;;;;;;1.83;1.00;;;19.20;83.70;;;;;;5071541;28;20531;-63
2021/05/10 12:15:27;;;;;;;1.03;0.93;;;18.70;82.00;;;;;;5071397;28;20433;-63
2021/05/10 12:17:55;;;;;;;1.17;0.90;;;18.40;79.90;;;;;;5071554;28;20459;-63
2021/05/10 12:20:24;;;;;;;1.00;1.00;;;18.20;82.10;;;;;;5071643;28;20459;-63
2021/05/10 12:22:54;;;;;;;1.67;1.40;;;18.50;82.90;;;;;;5071209;28;20949;-63
2021/05/10 12:25:24;;;;;;;2.60;1.07;;;19.40;82.60;;;;;;5071299;28;20899;-63
2021/05/10 12:27:58;;;;;;;3.77;1.13;;;20.00;81.50;;;;;;5071185;28;20410;-63
2021/05/10 12:30:34;;;;;;;1.73;1.30;;;20.20;79.40;;;;;;5071007;28;20405;-63
2021/05/10 12:33:07;;;;;;;1.77;1.33;;;20.20;76.30;;;;;;5071339;28;20405;-63
2021/05/10 12:35:44;;;;;;;1.27;1.17;;;20.00;78.10;;;;;;5071244;28;20401;-64
2021/05/10 12:38:10;;;;;;;1.27;1.17;;;19.90;77.40;;;;;;5072025;28;20861;-63
2021/05/10 12:40:42;;;;;;;2.20;1.17;;;19.60;77.50;;;;;;5074646;28;20439;-61
2021/05/10 12:43:12;;;;;;;1.30;1.20;;;19.80;79.90;;;;;;5075119;28;20459;-63
2021/05/10 12:45:44;;;;;;;3.47;1.40;;;20.10;79.00;;;;;;5074829;28;20744;-63
2021/05/10 12:48:12;;;;;;;1.30;1.20;;;20.50;79.20;;;;;;5074406;28;20459;-65
2021/05/10 12:50:43;;;;;;;1.83;1.53;;;20.80;80.00;;;;;;5073353;28;20409;-63
2021/05/10 12:53:09;;;;;;;1.40;1.30;;;20.70;77.30;;;;;;5074438;28;20413;-63
2021/05/10 12:55:37;;;;;;;1.40;1.10;;;21.00;77.40;;;;;;5074647;28;20902;-64
2021/05/10 12:58:20;;;;;;;1.37;1.20;;;20.80;75.10;;;;;;5074303;28;20507;-63